sensor_id;sensor_type;location;lat;lon;timestamp;P1;durP1;ratioP1;P2;durP2;ratioP2
74124;SDS011;62475;52.192;5.396;2023-07-08T00:00:38;4.90;;;2.20;;
74124;SDS011;62475;52.192;5.396;2023-07-08T00:03:03;6.25;;;3.85;;
74124;SDS011;62475;52.192;5.396;2023-07-08T00:05:28;5.30;;;2.28;;
74124;SDS011;62475;52.192;5.396;2023-07-08T00:07:53;3.58;;;2.42;;
74124;SDS011;62475;52.192;5.396;2023-07-08T00:10:20;4.47;;;2.20;;
74124;SDS011;62475;52.192;5.396;2023-07-08T00:12:48;5.57;;;2.10;;
74124;SDS011;62475;52.192;5.396;2023-07-08T00:15:15;6.63;;;2.35;;
74124;SDS011;62475;52.192;5.396;2023-07-08T00:17:42;4.53;;;2.22;;
74124;SDS011;62475;52.192;5.396;2023-07-08T00:20:18;4.40;;;2.40;;
74124;SDS011;62475;52.192;5.396;2023-07-08T00:22:46;3.38;;;2.25;;
74124;SDS011;62475;52.192;5.396;2023-07-08T00:25:14;5.50;;;2.22;;
74124;SDS011;62475;52.192;5.396;2023-07-08T00:27:41;4.15;;;2.67;;
74124;SDS011;62475;52.192;5.396;2023-07-08T00:30:25;5.32;;;2.45;;
74124;SDS011;62475;52.192;5.396;2023-07-08T00:32:53;4.22;;;2.25;;
74124;SDS011;62475;52.192;5.396;2023-07-08T00:35:25;6.50;;;2.28;;
74124;SDS011;62475;52.192;5.396;2023-07-08T00:37:54;4.80;;;2.67;;
74124;SDS011;62475;52.192;5.396;2023-07-08T00:40:26;4.70;;;2.13;;
74124;SDS011;62475;52.192;5.396;2023-07-08T00:42:51;8.93;;;2.47;;
74124;SDS011;62475;52.192;5.396;2023-07-08T00:45:20;4.60;;;2.72;;
74124;SDS011;62475;52.192;5.396;2023-07-08T00:47:55;3.40;;;2.25;;
74124;SDS011;62475;52.192;5.396;2023-07-08T00:50:24;4.68;;;2.42;;
74124;SDS011;62475;52.192;5.396;2023-07-08T00:52:50;5.13;;;2.60;;
74124;SDS011;62475;52.192;5.396;2023-07-08T00:56:13;5.78;;;2.15;;
74124;SDS011;62475;52.192;5.396;2023-07-08T00:58:49;3.58;;;2.45;;
74124;SDS011;62475;52.192;5.396;2023-07-08T01:01:21;3.05;;;2.42;;
74124;SDS011;62475;52.192;5.396;2023-07-08T01:03:53;4.40;;;2.50;;
74124;SDS011;62475;52.192;5.396;2023-07-08T01:06:21;4.88;;;2.20;;
74124;SDS011;62475;52.192;5.396;2023-07-08T01:08:49;3.22;;;2.13;;
74124;SDS011;62475;52.192;5.396;2023-07-08T01:11:17;4.15;;;2.53;;
74124;SDS011;62475;52.192;5.396;2023-07-08T01:13:46;3.75;;;2.60;;
74124;SDS011;62475;52.192;5.396;2023-07-08T01:16:13;4.80;;;3.30;;
74124;SDS011;62475;52.192;5.396;2023-07-08T01:18:39;3.92;;;2.40;;
74124;SDS011;62475;52.192;5.396;2023-07-08T01:21:26;5.70;;;2.80;;
74124;SDS011;62475;52.192;5.396;2023-07-08T01:24:03;4.97;;;2.90;;
74124;SDS011;62475;52.192;5.396;2023-07-08T01:26:31;7.57;;;2.72;;
74124;SDS011;62475;52.192;5.396;2023-07-08T01:29:00;4.55;;;2.65;;
74124;SDS011;62475;52.192;5.396;2023-07-08T01:31:28;5.10;;;3.15;;
74124;SDS011;62475;52.192;5.396;2023-07-08T01:33:54;4.03;;;2.33;;
74124;SDS011;62475;52.192;5.396;2023-07-08T01:36:19;7.05;;;2.85;;
74124;SDS011;62475;52.192;5.396;2023-07-08T01:38:45;3.80;;;2.17;;
74124;SDS011;62475;52.192;5.396;2023-07-08T01:41:12;8.57;;;2.92;;
74124;SDS011;62475;52.192;5.396;2023-07-08T01:43:39;4.47;;;2.70;;
74124;SDS011;62475;52.192;5.396;2023-07-08T01:46:04;6.65;;;2.78;;
74124;SDS011;62475;52.192;5.396;2023-07-08T01:48:43;5.18;;;2.60;;
74124;SDS011;62475;52.192;5.396;2023-07-08T01:51:13;5.25;;;2.90;;
74124;SDS011;62475;52.192;5.396;2023-07-08T01:53:40;5.78;;;2.95;;
74124;SDS011;62475;52.192;5.396;2023-07-08T01:56:06;4.93;;;2.60;;
74124;SDS011;62475;52.192;5.396;2023-07-08T01:58:33;5.57;;;2.65;;
74124;SDS011;62475;52.192;5.396;2023-07-08T02:00:59;6.15;;;2.60;;
74124;SDS011;62475;52.192;5.396;2023-07-08T02:03:25;6.57;;;2.65;;
74124;SDS011;62475;52.192;5.396;2023-07-08T02:05:51;2.78;;;2.40;;
74124;SDS011;62475;52.192;5.396;2023-07-08T02:08:16;5.10;;;3.20;;
74124;SDS011;62475;52.192;5.396;2023-07-08T02:10:42;4.50;;;2.63;;
74124;SDS011;62475;52.192;5.396;2023-07-08T02:13:09;6.10;;;2.85;;
74124;SDS011;62475;52.192;5.396;2023-07-08T02:15:34;4.60;;;2.65;;
74124;SDS011;62475;52.192;5.396;2023-07-08T02:17:59;5.60;;;2.70;;
74124;SDS011;62475;52.192;5.396;2023-07-08T02:20:25;4.90;;;2.72;;
74124;SDS011;62475;52.192;5.396;2023-07-08T02:22:51;4.20;;;2.45;;
74124;SDS011;62475;52.192;5.396;2023-07-08T02:25:16;5.47;;;2.70;;
74124;SDS011;62475;52.192;5.396;2023-07-08T02:27:42;4.57;;;2.90;;
74124;SDS011;62475;52.192;5.396;2023-07-08T02:30:07;4.20;;;2.70;;
74124;SDS011;62475;52.192;5.396;2023-07-08T02:32:34;4.30;;;2.60;;
74124;SDS011;62475;52.192;5.396;2023-07-08T02:35:03;4.63;;;3.10;;
74124;SDS011;62475;52.192;5.396;2023-07-08T02:37:29;5.00;;;3.05;;
74124;SDS011;62475;52.192;5.396;2023-07-08T02:39:55;5.97;;;2.80;;
74124;SDS011;62475;52.192;5.396;2023-07-08T02:42:20;5.57;;;2.55;;
74124;SDS011;62475;52.192;5.396;2023-07-08T02:44:47;4.43;;;3.13;;
74124;SDS011;62475;52.192;5.396;2023-07-08T02:47:14;3.53;;;2.22;;
74124;SDS011;62475;52.192;5.396;2023-07-08T02:49:39;5.68;;;2.90;;
74124;SDS011;62475;52.192;5.396;2023-07-08T02:52:05;3.97;;;2.58;;
74124;SDS011;62475;52.192;5.396;2023-07-08T02:54:30;4.70;;;3.20;;
74124;SDS011;62475;52.192;5.396;2023-07-08T02:56:55;3.90;;;2.67;;
74124;SDS011;62475;52.192;5.396;2023-07-08T02:59:21;6.55;;;2.72;;
74124;SDS011;62475;52.192;5.396;2023-07-08T03:01:46;5.65;;;2.63;;
74124;SDS011;62475;52.192;5.396;2023-07-08T03:04:12;6.70;;;2.75;;
74124;SDS011;62475;52.192;5.396;2023-07-08T03:06:44;3.53;;;2.58;;
74124;SDS011;62475;52.192;5.396;2023-07-08T03:09:10;5.65;;;2.88;;
74124;SDS011;62475;52.192;5.396;2023-07-08T03:11:37;4.10;;;2.67;;
74124;SDS011;62475;52.192;5.396;2023-07-08T03:14:04;4.20;;;2.60;;
74124;SDS011;62475;52.192;5.396;2023-07-08T03:16:30;5.07;;;2.72;;
74124;SDS011;62475;52.192;5.396;2023-07-08T03:18:55;3.78;;;2.97;;
74124;SDS011;62475;52.192;5.396;2023-07-08T03:21:20;7.82;;;3.13;;
74124;SDS011;62475;52.192;5.396;2023-07-08T03:23:47;4.72;;;3.10;;
74124;SDS011;62475;52.192;5.396;2023-07-08T03:26:21;4.82;;;3.33;;
74124;SDS011;62475;52.192;5.396;2023-07-08T03:31:15;4.85;;;3.17;;
74124;SDS011;62475;52.192;5.396;2023-07-08T03:33:41;4.85;;;2.70;;
74124;SDS011;62475;52.192;5.396;2023-07-08T03:36:17;5.50;;;3.20;;
74124;SDS011;62475;52.192;5.396;2023-07-08T03:38:48;6.70;;;3.22;;
74124;SDS011;62475;52.192;5.396;2023-07-08T03:41:14;5.95;;;2.90;;
74124;SDS011;62475;52.192;5.396;2023-07-08T03:43:40;5.43;;;3.00;;
74124;SDS011;62475;52.192;5.396;2023-07-08T03:46:07;4.88;;;2.75;;
74124;SDS011;62475;52.192;5.396;2023-07-08T03:48:34;5.25;;;3.22;;
74124;SDS011;62475;52.192;5.396;2023-07-08T03:51:00;4.85;;;2.83;;
74124;SDS011;62475;52.192;5.396;2023-07-08T03:53:25;8.10;;;3.40;;
74124;SDS011;62475;52.192;5.396;2023-07-08T03:55:50;5.30;;;3.30;;
74124;SDS011;62475;52.192;5.396;2023-07-08T03:58:16;4.72;;;2.83;;
74124;SDS011;62475;52.192;5.396;2023-07-08T04:00:42;5.70;;;3.03;;
74124;SDS011;62475;52.192;5.396;2023-07-08T04:03:09;3.85;;;2.38;;
74124;SDS011;62475;52.192;5.396;2023-07-08T04:05:36;7.72;;;3.30;;
74124;SDS011;62475;52.192;5.396;2023-07-08T04:08:02;6.43;;;3.10;;
74124;SDS011;62475;52.192;5.396;2023-07-08T04:10:27;3.92;;;2.65;;
74124;SDS011;62475;52.192;5.396;2023-07-08T04:12:52;5.25;;;3.30;;
74124;SDS011;62475;52.192;5.396;2023-07-08T04:15:19;5.60;;;3.60;;
74124;SDS011;62475;52.192;5.396;2023-07-08T04:17:50;6.20;;;2.97;;
74124;SDS011;62475;52.192;5.396;2023-07-08T04:20:16;4.55;;;3.10;;
74124;SDS011;62475;52.192;5.396;2023-07-08T04:22:43;4.93;;;3.10;;
74124;SDS011;62475;52.192;5.396;2023-07-08T04:25:12;6.75;;;3.10;;
74124;SDS011;62475;52.192;5.396;2023-07-08T04:27:39;3.92;;;3.10;;
74124;SDS011;62475;52.192;5.396;2023-07-08T04:30:05;5.43;;;2.90;;
74124;SDS011;62475;52.192;5.396;2023-07-08T04:32:32;5.40;;;2.85;;
74124;SDS011;62475;52.192;5.396;2023-07-08T04:34:57;6.53;;;2.80;;
74124;SDS011;62475;52.192;5.396;2023-07-08T04:37:22;3.92;;;2.80;;
74124;SDS011;62475;52.192;5.396;2023-07-08T04:39:48;4.78;;;3.08;;
74124;SDS011;62475;52.192;5.396;2023-07-08T04:42:13;4.50;;;2.53;;
74124;SDS011;62475;52.192;5.396;2023-07-08T04:44:42;4.70;;;3.13;;
74124;SDS011;62475;52.192;5.396;2023-07-08T04:47:08;3.53;;;2.70;;
74124;SDS011;62475;52.192;5.396;2023-07-08T04:49:34;4.43;;;2.97;;
74124;SDS011;62475;52.192;5.396;2023-07-08T04:52:00;5.40;;;3.10;;
74124;SDS011;62475;52.192;5.396;2023-07-08T04:54:26;4.93;;;2.95;;
74124;SDS011;62475;52.192;5.396;2023-07-08T04:56:55;5.43;;;2.47;;
74124;SDS011;62475;52.192;5.396;2023-07-08T04:59:22;4.90;;;2.88;;
74124;SDS011;62475;52.192;5.396;2023-07-08T05:01:49;6.10;;;2.55;;
74124;SDS011;62475;52.192;5.396;2023-07-08T05:04:16;6.63;;;2.50;;
74124;SDS011;62475;52.192;5.396;2023-07-08T05:06:46;5.82;;;2.65;;
74124;SDS011;62475;52.192;5.396;2023-07-08T05:09:11;5.43;;;2.78;;
74124;SDS011;62475;52.192;5.396;2023-07-08T05:11:38;4.10;;;2.75;;
74124;SDS011;62475;52.192;5.396;2023-07-08T05:14:04;4.45;;;2.50;;
74124;SDS011;62475;52.192;5.396;2023-07-08T05:16:32;3.00;;;2.30;;
74124;SDS011;62475;52.192;5.396;2023-07-08T05:18:58;3.75;;;2.58;;
74124;SDS011;62475;52.192;5.396;2023-07-08T05:21:24;3.17;;;2.28;;
74124;SDS011;62475;52.192;5.396;2023-07-08T05:23:49;4.68;;;2.50;;
74124;SDS011;62475;52.192;5.396;2023-07-08T05:26:15;4.80;;;2.65;;
74124;SDS011;62475;52.192;5.396;2023-07-08T05:28:42;8.25;;;3.25;;
74124;SDS011;62475;52.192;5.396;2023-07-08T05:31:08;5.75;;;2.80;;
74124;SDS011;62475;52.192;5.396;2023-07-08T05:33:36;4.57;;;2.90;;
74124;SDS011;62475;52.192;5.396;2023-07-08T05:36:02;5.38;;;2.95;;
74124;SDS011;62475;52.192;5.396;2023-07-08T05:38:29;3.63;;;2.50;;
74124;SDS011;62475;52.192;5.396;2023-07-08T05:40:54;3.83;;;2.63;;
74124;SDS011;62475;52.192;5.396;2023-07-08T05:43:22;6.97;;;2.60;;
74124;SDS011;62475;52.192;5.396;2023-07-08T05:45:48;3.80;;;2.45;;
74124;SDS011;62475;52.192;5.396;2023-07-08T05:48:14;4.47;;;2.50;;
74124;SDS011;62475;52.192;5.396;2023-07-08T05:50:39;3.97;;;3.20;;
74124;SDS011;62475;52.192;5.396;2023-07-08T05:53:05;4.50;;;2.38;;
74124;SDS011;62475;52.192;5.396;2023-07-08T05:57:59;3.60;;;2.53;;
74124;SDS011;62475;52.192;5.396;2023-07-08T06:00:24;5.15;;;2.53;;
74124;SDS011;62475;52.192;5.396;2023-07-08T06:02:50;4.95;;;2.78;;
74124;SDS011;62475;52.192;5.396;2023-07-08T06:05:15;4.70;;;2.67;;
74124;SDS011;62475;52.192;5.396;2023-07-08T06:07:41;4.07;;;2.25;;
74124;SDS011;62475;52.192;5.396;2023-07-08T06:10:06;6.57;;;2.53;;
74124;SDS011;62475;52.192;5.396;2023-07-08T06:12:33;4.30;;;2.50;;
74124;SDS011;62475;52.192;5.396;2023-07-08T06:14:59;5.35;;;2.55;;
74124;SDS011;62475;52.192;5.396;2023-07-08T06:17:24;3.75;;;2.42;;
74124;SDS011;62475;52.192;5.396;2023-07-08T06:19:51;3.75;;;2.17;;
74124;SDS011;62475;52.192;5.396;2023-07-08T06:22:16;6.40;;;3.03;;
74124;SDS011;62475;52.192;5.396;2023-07-08T06:24:41;4.38;;;3.13;;
74124;SDS011;62475;52.192;5.396;2023-07-08T06:27:11;3.45;;;2.50;;
74124;SDS011;62475;52.192;5.396;2023-07-08T06:29:37;4.03;;;2.60;;
74124;SDS011;62475;52.192;5.396;2023-07-08T06:32:02;4.45;;;2.50;;
74124;SDS011;62475;52.192;5.396;2023-07-08T06:34:28;5.47;;;2.50;;
74124;SDS011;62475;52.192;5.396;2023-07-08T06:36:53;4.13;;;2.55;;
74124;SDS011;62475;52.192;5.396;2023-07-08T06:39:20;4.85;;;2.53;;
74124;SDS011;62475;52.192;5.396;2023-07-08T06:41:45;5.15;;;2.63;;
74124;SDS011;62475;52.192;5.396;2023-07-08T06:44:11;5.80;;;2.85;;
74124;SDS011;62475;52.192;5.396;2023-07-08T06:46:36;3.63;;;2.70;;
74124;SDS011;62475;52.192;5.396;2023-07-08T06:49:02;4.00;;;2.47;;
74124;SDS011;62475;52.192;5.396;2023-07-08T06:51:28;5.43;;;2.63;;
74124;SDS011;62475;52.192;5.396;2023-07-08T06:53:53;3.67;;;2.55;;
74124;SDS011;62475;52.192;5.396;2023-07-08T06:56:19;4.35;;;2.72;;
74124;SDS011;62475;52.192;5.396;2023-07-08T06:58:45;3.50;;;2.25;;
74124;SDS011;62475;52.192;5.396;2023-07-08T07:01:11;5.57;;;2.72;;
74124;SDS011;62475;52.192;5.396;2023-07-08T07:03:37;4.45;;;3.08;;
74124;SDS011;62475;52.192;5.396;2023-07-08T07:06:02;5.97;;;2.63;;
74124;SDS011;62475;52.192;5.396;2023-07-08T07:08:28;4.55;;;2.92;;
74124;SDS011;62475;52.192;5.396;2023-07-08T07:10:53;5.57;;;2.63;;
74124;SDS011;62475;52.192;5.396;2023-07-08T07:13:18;5.68;;;2.70;;
74124;SDS011;62475;52.192;5.396;2023-07-08T07:15:44;7.07;;;2.50;;
74124;SDS011;62475;52.192;5.396;2023-07-08T07:18:09;4.60;;;2.72;;
74124;SDS011;62475;52.192;5.396;2023-07-08T07:20:36;5.85;;;3.03;;
74124;SDS011;62475;52.192;5.396;2023-07-08T07:23:02;7.18;;;3.20;;
74124;SDS011;62475;52.192;5.396;2023-07-08T07:25:28;4.10;;;2.72;;
74124;SDS011;62475;52.192;5.396;2023-07-08T07:27:54;3.95;;;2.35;;
74124;SDS011;62475;52.192;5.396;2023-07-08T07:30:19;5.60;;;2.92;;
74124;SDS011;62475;52.192;5.396;2023-07-08T07:32:44;7.43;;;3.05;;
74124;SDS011;62475;52.192;5.396;2023-07-08T07:35:10;6.90;;;2.80;;
74124;SDS011;62475;52.192;5.396;2023-07-08T07:37:38;5.55;;;2.97;;
74124;SDS011;62475;52.192;5.396;2023-07-08T07:40:04;5.15;;;2.92;;
74124;SDS011;62475;52.192;5.396;2023-07-08T07:42:42;6.22;;;3.58;;
74124;SDS011;62475;52.192;5.396;2023-07-08T07:45:09;6.43;;;2.85;;
74124;SDS011;62475;52.192;5.396;2023-07-08T07:47:35;5.35;;;2.53;;
74124;SDS011;62475;52.192;5.396;2023-07-08T07:50:01;6.38;;;2.55;;
74124;SDS011;62475;52.192;5.396;2023-07-08T07:52:27;4.68;;;2.83;;
74124;SDS011;62475;52.192;5.396;2023-07-08T07:54:54;3.47;;;2.70;;
74124;SDS011;62475;52.192;5.396;2023-07-08T07:57:20;4.60;;;2.53;;
74124;SDS011;62475;52.192;5.396;2023-07-08T07:59:46;5.80;;;3.00;;
74124;SDS011;62475;52.192;5.396;2023-07-08T08:02:14;5.43;;;2.95;;
74124;SDS011;62475;52.192;5.396;2023-07-08T08:04:42;3.70;;;2.65;;
74124;SDS011;62475;52.192;5.396;2023-07-08T08:07:08;5.50;;;3.03;;
74124;SDS011;62475;52.192;5.396;2023-07-08T08:09:34;5.40;;;3.17;;
74124;SDS011;62475;52.192;5.396;2023-07-08T08:12:01;8.00;;;2.97;;
74124;SDS011;62475;52.192;5.396;2023-07-08T08:14:28;5.00;;;2.75;;
74124;SDS011;62475;52.192;5.396;2023-07-08T08:16:54;4.80;;;3.08;;
74124;SDS011;62475;52.192;5.396;2023-07-08T08:19:20;4.78;;;3.08;;
74124;SDS011;62475;52.192;5.396;2023-07-08T08:21:45;6.10;;;3.13;;
74124;SDS011;62475;52.192;5.396;2023-07-08T08:24:12;6.65;;;3.58;;
74124;SDS011;62475;52.192;5.396;2023-07-08T08:26:37;5.22;;;2.90;;
74124;SDS011;62475;52.192;5.396;2023-07-08T08:29:03;4.80;;;2.90;;
74124;SDS011;62475;52.192;5.396;2023-07-08T08:31:28;5.38;;;3.22;;
74124;SDS011;62475;52.192;5.396;2023-07-08T08:33:53;4.07;;;2.85;;
74124;SDS011;62475;52.192;5.396;2023-07-08T08:36:19;5.63;;;3.22;;
74124;SDS011;62475;52.192;5.396;2023-07-08T08:38:45;6.43;;;2.90;;
74124;SDS011;62475;52.192;5.396;2023-07-08T08:41:15;5.70;;;3.47;;
74124;SDS011;62475;52.192;5.396;2023-07-08T08:43:43;4.68;;;3.38;;
74124;SDS011;62475;52.192;5.396;2023-07-08T08:51:45;5.78;;;3.08;;
74124;SDS011;62475;52.192;5.396;2023-07-08T08:54:12;5.57;;;3.08;;
74124;SDS011;62475;52.192;5.396;2023-07-08T09:05:03;6.05;;;3.15;;
74124;SDS011;62475;52.192;5.396;2023-07-08T09:07:34;5.30;;;3.45;;
74124;SDS011;62475;52.192;5.396;2023-07-08T09:10:10;5.03;;;3.20;;
74124;SDS011;62475;52.192;5.396;2023-07-08T09:12:44;5.70;;;3.67;;
74124;SDS011;62475;52.192;5.396;2023-07-08T09:15:14;7.57;;;3.95;;
74124;SDS011;62475;52.192;5.396;2023-07-08T09:17:40;7.70;;;4.07;;
74124;SDS011;62475;52.192;5.396;2023-07-08T09:20:12;6.85;;;3.35;;
74124;SDS011;62475;52.192;5.396;2023-07-08T09:26:10;8.68;;;3.58;;
74124;SDS011;62475;52.192;5.396;2023-07-08T09:28:35;8.40;;;3.92;;
74124;SDS011;62475;52.192;5.396;2023-07-08T09:31:05;7.25;;;3.95;;
74124;SDS011;62475;52.192;5.396;2023-07-08T09:35:59;6.15;;;3.92;;
74124;SDS011;62475;52.192;5.396;2023-07-08T09:38:26;7.55;;;4.30;;
74124;SDS011;62475;52.192;5.396;2023-07-08T09:40:51;5.68;;;3.92;;
74124;SDS011;62475;52.192;5.396;2023-07-08T09:43:30;7.75;;;4.18;;
74124;SDS011;62475;52.192;5.396;2023-07-08T09:46:02;5.70;;;3.63;;
74124;SDS011;62475;52.192;5.396;2023-07-08T09:48:36;6.95;;;4.05;;
74124;SDS011;62475;52.192;5.396;2023-07-08T09:51:02;6.18;;;3.65;;
74124;SDS011;62475;52.192;5.396;2023-07-08T09:53:29;6.53;;;3.75;;
74124;SDS011;62475;52.192;5.396;2023-07-08T09:55:57;4.97;;;3.75;;
74124;SDS011;62475;52.192;5.396;2023-07-08T09:58:29;6.68;;;3.92;;
74124;SDS011;62475;52.192;5.396;2023-07-08T10:00:57;11.52;;;4.00;;
74124;SDS011;62475;52.192;5.396;2023-07-08T10:03:30;6.53;;;4.00;;
74124;SDS011;62475;52.192;5.396;2023-07-08T10:05:58;6.40;;;4.38;;
74124;SDS011;62475;52.192;5.396;2023-07-08T10:08:28;7.65;;;4.35;;
74124;SDS011;62475;52.192;5.396;2023-07-08T10:13:53;5.80;;;4.03;;
74124;SDS011;62475;52.192;5.396;2023-07-08T10:16:27;7.00;;;3.83;;
74124;SDS011;62475;52.192;5.396;2023-07-08T10:18:54;8.75;;;4.28;;
74124;SDS011;62475;52.192;5.396;2023-07-08T10:21:23;7.32;;;4.75;;
74124;SDS011;62475;52.192;5.396;2023-07-08T10:23:55;7.25;;;3.85;;
74124;SDS011;62475;52.192;5.396;2023-07-08T10:26:27;7.95;;;4.80;;
74124;SDS011;62475;52.192;5.396;2023-07-08T10:31:59;8.25;;;4.00;;
74124;SDS011;62475;52.192;5.396;2023-07-08T10:37:07;8.80;;;4.75;;
74124;SDS011;62475;52.192;5.396;2023-07-08T10:42:41;6.38;;;4.53;;
74124;SDS011;62475;52.192;5.396;2023-07-08T10:51:04;7.07;;;4.55;;
74124;SDS011;62475;52.192;5.396;2023-07-08T10:56:28;8.20;;;4.93;;
74124;SDS011;62475;52.192;5.396;2023-07-08T11:02:10;6.65;;;4.45;;
74124;SDS011;62475;52.192;5.396;2023-07-08T11:13:12;8.13;;;5.22;;
74124;SDS011;62475;52.192;5.396;2023-07-08T11:28:51;8.13;;;5.80;;
74124;SDS011;62475;52.192;5.396;2023-07-08T11:31:21;8.75;;;4.93;;
74124;SDS011;62475;52.192;5.396;2023-07-08T11:33:48;10.35;;;4.90;;
74124;SDS011;62475;52.192;5.396;2023-07-08T11:36:14;7.50;;;4.95;;
74124;SDS011;62475;52.192;5.396;2023-07-08T11:38:47;8.10;;;5.03;;
74124;SDS011;62475;52.192;5.396;2023-07-08T11:41:15;10.07;;;5.25;;
74124;SDS011;62475;52.192;5.396;2023-07-08T11:43:46;7.80;;;4.65;;
74124;SDS011;62475;52.192;5.396;2023-07-08T11:46:16;6.60;;;4.93;;
74124;SDS011;62475;52.192;5.396;2023-07-08T11:48:46;8.80;;;4.88;;
74124;SDS011;62475;52.192;5.396;2023-07-08T11:51:17;8.52;;;5.35;;
74124;SDS011;62475;52.192;5.396;2023-07-08T11:59:22;8.63;;;5.30;;
74124;SDS011;62475;52.192;5.396;2023-07-08T12:01:53;7.03;;;5.00;;
74124;SDS011;62475;52.192;5.396;2023-07-08T12:04:35;7.43;;;4.60;;
74124;SDS011;62475;52.192;5.396;2023-07-08T12:07:32;10.43;;;5.00;;
74124;SDS011;62475;52.192;5.396;2023-07-08T12:12:47;7.13;;;4.47;;
74124;SDS011;62475;52.192;5.396;2023-07-08T12:15:29;9.82;;;4.72;;
74124;SDS011;62475;52.192;5.396;2023-07-08T12:17:59;9.93;;;5.22;;
74124;SDS011;62475;52.192;5.396;2023-07-08T12:20:38;9.88;;;4.60;;
74124;SDS011;62475;52.192;5.396;2023-07-08T12:25:37;9.38;;;5.35;;
74124;SDS011;62475;52.192;5.396;2023-07-08T12:28:02;9.23;;;5.13;;
74124;SDS011;62475;52.192;5.396;2023-07-08T12:30:28;8.52;;;5.00;;
74124;SDS011;62475;52.192;5.396;2023-07-08T12:32:58;6.82;;;4.63;;
74124;SDS011;62475;52.192;5.396;2023-07-08T12:35:32;8.93;;;5.25;;
74124;SDS011;62475;52.192;5.396;2023-07-08T12:38:42;7.65;;;4.53;;
74124;SDS011;62475;52.192;5.396;2023-07-08T12:40:57;9.98;;;4.85;;
74124;SDS011;62475;52.192;5.396;2023-07-08T12:43:25;9.38;;;5.13;;
74124;SDS011;62475;52.192;5.396;2023-07-08T12:45:50;7.22;;;4.57;;
74124;SDS011;62475;52.192;5.396;2023-07-08T12:48:15;8.50;;;4.68;;
74124;SDS011;62475;52.192;5.396;2023-07-08T12:50:41;7.90;;;4.80;;
74124;SDS011;62475;52.192;5.396;2023-07-08T12:53:06;8.48;;;4.63;;
74124;SDS011;62475;52.192;5.396;2023-07-08T12:55:37;7.57;;;4.47;;
74124;SDS011;62475;52.192;5.396;2023-07-08T12:58:07;8.38;;;5.07;;
74124;SDS011;62475;52.192;5.396;2023-07-08T13:00:57;8.05;;;4.93;;
74124;SDS011;62475;52.192;5.396;2023-07-08T13:03:29;5.95;;;4.60;;
74124;SDS011;62475;52.192;5.396;2023-07-08T13:05:56;8.15;;;4.65;;
74124;SDS011;62475;52.192;5.396;2023-07-08T13:08:24;8.65;;;4.78;;
74124;SDS011;62475;52.192;5.396;2023-07-08T13:10:53;7.25;;;4.53;;
74124;SDS011;62475;52.192;5.396;2023-07-08T13:13:23;7.88;;;4.65;;
74124;SDS011;62475;52.192;5.396;2023-07-08T13:15:52;9.55;;;4.95;;
74124;SDS011;62475;52.192;5.396;2023-07-08T13:18:18;8.30;;;4.43;;
74124;SDS011;62475;52.192;5.396;2023-07-08T13:20:48;7.40;;;4.72;;
74124;SDS011;62475;52.192;5.396;2023-07-08T13:23:17;8.15;;;4.63;;
74124;SDS011;62475;52.192;5.396;2023-07-08T13:25:46;8.38;;;5.00;;
74124;SDS011;62475;52.192;5.396;2023-07-08T13:28:18;8.93;;;4.93;;
74124;SDS011;62475;52.192;5.396;2023-07-08T13:30:51;9.60;;;4.25;;
74124;SDS011;62475;52.192;5.396;2023-07-08T13:33:17;11.27;;;5.60;;
74124;SDS011;62475;52.192;5.396;2023-07-08T13:35:43;8.82;;;4.82;;
74124;SDS011;62475;52.192;5.396;2023-07-08T13:38:13;6.32;;;4.70;;
74124;SDS011;62475;52.192;5.396;2023-07-08T13:40:45;7.68;;;4.65;;
74124;SDS011;62475;52.192;5.396;2023-07-08T13:43:12;9.55;;;5.05;;
74124;SDS011;62475;52.192;5.396;2023-07-08T13:45:43;9.70;;;4.88;;
74124;SDS011;62475;52.192;5.396;2023-07-08T13:50:55;9.10;;;4.70;;
74124;SDS011;62475;52.192;5.396;2023-07-08T13:53:45;6.07;;;4.10;;
74124;SDS011;62475;52.192;5.396;2023-07-08T13:58:45;7.10;;;4.53;;
74124;SDS011;62475;52.192;5.396;2023-07-08T14:01:18;7.95;;;4.57;;
74124;SDS011;62475;52.192;5.396;2023-07-08T14:03:49;7.25;;;4.43;;
74124;SDS011;62475;52.192;5.396;2023-07-08T14:06:16;7.78;;;4.40;;
74124;SDS011;62475;52.192;5.396;2023-07-08T14:08:44;7.63;;;3.80;;
74124;SDS011;62475;52.192;5.396;2023-07-08T14:11:09;8.10;;;4.45;;
74124;SDS011;62475;52.192;5.396;2023-07-08T14:13:35;7.72;;;4.30;;
74124;SDS011;62475;52.192;5.396;2023-07-08T14:16:01;7.57;;;4.32;;
74124;SDS011;62475;52.192;5.396;2023-07-08T14:20:54;8.82;;;4.00;;
74124;SDS011;62475;52.192;5.396;2023-07-08T14:23:20;9.20;;;4.65;;
74124;SDS011;62475;52.192;5.396;2023-07-08T14:25:45;7.20;;;4.50;;
74124;SDS011;62475;52.192;5.396;2023-07-08T14:28:11;8.07;;;4.13;;
74124;SDS011;62475;52.192;5.396;2023-07-08T14:30:38;7.43;;;3.90;;
74124;SDS011;62475;52.192;5.396;2023-07-08T14:33:10;8.45;;;4.45;;
74124;SDS011;62475;52.192;5.396;2023-07-08T14:35:37;7.93;;;4.78;;
74124;SDS011;62475;52.192;5.396;2023-07-08T14:38:05;7.75;;;4.20;;
74124;SDS011;62475;52.192;5.396;2023-07-08T14:40:35;9.02;;;3.75;;
74124;SDS011;62475;52.192;5.396;2023-07-08T14:43:04;7.28;;;4.10;;
74124;SDS011;62475;52.192;5.396;2023-07-08T14:45:46;6.95;;;3.90;;
74124;SDS011;62475;52.192;5.396;2023-07-08T14:48:14;8.07;;;4.93;;
74124;SDS011;62475;52.192;5.396;2023-07-08T14:50:40;8.52;;;3.90;;
74124;SDS011;62475;52.192;5.396;2023-07-08T14:53:05;7.55;;;3.90;;
74124;SDS011;62475;52.192;5.396;2023-07-08T14:55:31;5.32;;;3.80;;
74124;SDS011;62475;52.192;5.396;2023-07-08T14:57:57;6.90;;;3.97;;
74124;SDS011;62475;52.192;5.396;2023-07-08T15:00:22;6.05;;;3.78;;
74124;SDS011;62475;52.192;5.396;2023-07-08T15:02:48;7.65;;;3.90;;
74124;SDS011;62475;52.192;5.396;2023-07-08T15:05:22;6.60;;;4.10;;
74124;SDS011;62475;52.192;5.396;2023-07-08T15:07:57;7.47;;;4.53;;
74124;SDS011;62475;52.192;5.396;2023-07-08T15:10:24;7.40;;;4.25;;
74124;SDS011;62475;52.192;5.396;2023-07-08T15:12:51;6.47;;;3.88;;
74124;SDS011;62475;52.192;5.396;2023-07-08T15:15:31;9.23;;;4.65;;
74124;SDS011;62475;52.192;5.396;2023-07-08T15:17:58;7.30;;;4.38;;
74124;SDS011;62475;52.192;5.396;2023-07-08T15:20:26;9.35;;;4.45;;
74124;SDS011;62475;52.192;5.396;2023-07-08T15:22:51;7.85;;;4.55;;
74124;SDS011;62475;52.192;5.396;2023-07-08T15:25:18;6.85;;;4.40;;
74124;SDS011;62475;52.192;5.396;2023-07-08T15:27:45;6.82;;;4.32;;
74124;SDS011;62475;52.192;5.396;2023-07-08T15:30:21;6.68;;;4.47;;
74124;SDS011;62475;52.192;5.396;2023-07-08T15:32:48;8.15;;;4.22;;
74124;SDS011;62475;52.192;5.396;2023-07-08T15:35:15;8.80;;;4.90;;
74124;SDS011;62475;52.192;5.396;2023-07-08T15:37:42;7.05;;;4.47;;
74124;SDS011;62475;52.192;5.396;2023-07-08T15:40:09;6.00;;;4.10;;
74124;SDS011;62475;52.192;5.396;2023-07-08T15:42:37;6.00;;;4.43;;
74124;SDS011;62475;52.192;5.396;2023-07-08T15:45:13;8.20;;;4.55;;
74124;SDS011;62475;52.192;5.396;2023-07-08T15:47:40;7.68;;;4.30;;
74124;SDS011;62475;52.192;5.396;2023-07-08T15:50:09;7.78;;;4.47;;
74124;SDS011;62475;52.192;5.396;2023-07-08T15:52:36;6.53;;;4.70;;
74124;SDS011;62475;52.192;5.396;2023-07-08T15:55:02;7.15;;;4.10;;
74124;SDS011;62475;52.192;5.396;2023-07-08T15:57:28;7.97;;;4.32;;
74124;SDS011;62475;52.192;5.396;2023-07-08T15:59:53;6.93;;;4.43;;
74124;SDS011;62475;52.192;5.396;2023-07-08T16:02:25;8.25;;;4.32;;
74124;SDS011;62475;52.192;5.396;2023-07-08T16:04:53;8.73;;;4.80;;
74124;SDS011;62475;52.192;5.396;2023-07-08T16:07:19;8.05;;;4.50;;
74124;SDS011;62475;52.192;5.396;2023-07-08T16:09:45;9.75;;;4.85;;
74124;SDS011;62475;52.192;5.396;2023-07-08T16:12:13;8.20;;;4.40;;
74124;SDS011;62475;52.192;5.396;2023-07-08T16:14:43;8.70;;;4.78;;
74124;SDS011;62475;52.192;5.396;2023-07-08T16:17:09;9.07;;;4.88;;
74124;SDS011;62475;52.192;5.396;2023-07-08T16:19:36;7.55;;;4.97;;
74124;SDS011;62475;52.192;5.396;2023-07-08T16:22:02;6.70;;;5.00;;